createdAt,value
2019-05-11T00:00:22.558Z,98711.74
2019-05-11T00:02:44.494Z,98721.51
2019-05-11T00:05:06.732Z,98712.05
2019-05-11T00:07:28.168Z,98702.58
2019-05-11T00:09:58.276Z,98698.77
2019-05-11T00:12:12.692Z,98694.47
2019-05-11T00:14:34.667Z,98693.11
2019-05-11T00:16:55.645Z,98686.89
2019-05-11T00:19:17.619Z,98684.70
2019-05-11T00:21:39.565Z,98685.25
2019-05-11T00:24:01.826Z,98684.95
2019-05-11T00:26:24.186Z,98683.59
2019-05-11T00:28:45.633Z,98685.77
2019-05-11T00:31:07.845Z,98685.71
2019-05-11T00:33:29.142Z,98687.61
2019-05-11T00:35:50.933Z,98687.31
2019-05-11T00:38:12.351Z,98682.42
2019-05-11T00:40:34.053Z,98684.31
2019-05-11T00:42:55.767Z,98681.86
2019-05-11T00:45:17.437Z,98683.43
2019-05-11T00:47:39.282Z,98688.03
2019-05-11T00:50:00.779Z,98683.97
2019-05-11T00:52:22.620Z,98682.84
2019-05-11T00:54:44.267Z,98681.22
2019-05-11T00:57:06.504Z,98683.63
2019-05-11T00:59:28.356Z,98683.63
2019-05-11T01:01:50.167Z,98679.28
2019-05-11T01:04:12.184Z,98683.04
2019-05-11T01:06:34.591Z,98683.29
2019-05-11T01:08:56.074Z,98675.39
2019-05-11T01:11:18.230Z,98674.59
2019-05-11T01:13:39.992Z,98679.70
2019-05-11T01:16:01.739Z,98679.41
2019-05-11T01:18:23.040Z,98674.54
2019-05-11T01:20:44.372Z,98672.59
2019-05-11T01:23:06.267Z,98675.81
2019-05-11T01:25:28.228Z,98669.89
2019-05-11T01:27:50.053Z,98667.70
2019-05-11T01:30:11.521Z,98667.37
2019-05-11T01:32:32.896Z,98667.37
2019-05-11T01:34:54.822Z,98673.95
2019-05-11T01:37:17.178Z,98662.08
2019-05-11T01:39:39.485Z,98657.23
2019-05-11T01:42:01.409Z,98655.12
2019-05-11T01:44:23.341Z,98647.30
2019-05-11T01:46:45.060Z,98653.59
2019-05-11T01:49:07.261Z,98650.64
2019-05-11T01:51:29.783Z,98649.88
2019-05-11T01:53:51.239Z,98650.17
2019-05-11T01:56:12.816Z,98651.28
2019-05-11T01:58:34.342Z,98648.87
2019-05-11T02:00:55.662Z,98642.66
2019-05-11T02:03:17.477Z,98643.76
2019-05-11T02:05:39.607Z,98640.21
2019-05-11T02:08:01.999Z,98640.76
2019-05-11T02:10:23.256Z,98631.00
2019-05-11T02:12:45.136Z,98634.80
2019-05-11T02:15:07.180Z,98626.95
2019-05-11T02:17:28.700Z,98621.53
2019-05-11T02:19:50.183Z,98615.83
2019-05-11T02:22:11.657Z,98623.95
2019-05-11T02:24:33.663Z,98622.59
2019-05-11T02:26:55.325Z,98633.11
2019-05-11T02:29:17.678Z,98637.17
2019-05-11T02:31:38.846Z,98632.82
2019-05-11T02:34:00.541Z,98632.55
2019-05-11T02:36:21.973Z,98629.85
2019-05-11T02:38:43.912Z,98636.83
2019-05-11T02:41:05.977Z,98631.97
2019-05-11T02:43:27.426Z,98639.78
2019-05-11T02:45:48.938Z,98641.39
2019-05-11T02:48:11.037Z,98644.89
2019-05-11T02:50:32.020Z,98632.98
2019-05-11T02:52:53.528Z,98632.69
2019-05-11T02:55:15.243Z,98634.55
2019-05-11T02:57:36.903Z,98635.34
2019-05-11T02:59:58.238Z,98626.94
2019-05-11T03:02:19.646Z,98626.64
2019-05-11T03:04:41.595Z,98629.34
2019-05-11T03:07:03.320Z,98640.16
2019-05-11T03:09:24.873Z,98631.97
2019-05-11T03:11:55.493Z,98636.28
2019-05-11T03:14:09.771Z,98633.02
2019-05-11T03:16:31.928Z,98631.38
2019-05-11T03:18:53.693Z,98630.54
2019-05-11T03:21:15.573Z,98631.30
2019-05-11T03:23:38.087Z,98634.00
2019-05-11T03:26:00.021Z,98624.80
2019-05-11T03:28:21.325Z,98628.55
2019-05-11T03:30:43.567Z,98625.34
2019-05-11T03:33:04.882Z,98629.39
2019-05-11T03:35:27.000Z,98624.28
2019-05-11T03:37:48.837Z,98627.55
2019-05-11T03:40:10.774Z,98629.48
2019-05-11T03:42:32.925Z,98626.34
2019-05-11T03:44:54.563Z,98626.14
2019-05-11T03:47:16.634Z,98624.33
2019-05-11T03:49:38.208Z,98621.66
2019-05-11T03:52:00.081Z,98624.66
2019-05-11T03:54:22.018Z,98624.70
2019-05-11T03:56:43.772Z,98623.66
2019-05-11T03:59:05.649Z,98619.08
2019-05-11T04:01:27.218Z,98623.44
2019-05-11T04:03:49.008Z,98618.83
2019-05-11T04:06:10.983Z,98621.83
2019-05-11T04:08:32.657Z,98618.58
2019-05-11T04:10:54.855Z,98616.47
2019-05-11T04:13:16.889Z,98621.66
2019-05-11T04:15:38.790Z,98619.80
2019-05-11T04:18:00.824Z,98610.34
2019-05-11T04:20:22.582Z,98608.22
2019-05-11T04:22:44.423Z,98614.73
2019-05-11T04:25:06.133Z,98614.52
2019-05-11T04:27:28.021Z,98608.05
2019-05-11T04:29:49.607Z,98608.05
2019-05-11T04:32:11.196Z,98616.45
2019-05-11T04:34:33.525Z,98611.85
2019-05-11T04:36:55.412Z,98610.20
2019-05-11T04:39:16.833Z,98611.05
2019-05-11T04:41:38.992Z,98605.89
2019-05-11T04:44:01.265Z,98609.39
2019-05-11T04:46:22.915Z,98602.63
2019-05-11T04:48:44.371Z,98600.16
2019-05-11T04:51:06.087Z,98598.80
2019-05-11T04:53:27.821Z,98597.16
2019-05-11T04:55:49.795Z,98595.54
2019-05-11T04:58:11.430Z,98598.76
2019-05-11T05:00:33.537Z,98607.71
2019-05-11T05:02:55.470Z,98608.98
2019-05-11T05:05:17.372Z,98605.77
2019-05-11T05:07:48.076Z,98609.53
2019-05-11T05:10:01.874Z,98611.94
2019-05-11T05:12:23.818Z,98612.19
2019-05-11T05:14:44.965Z,98611.90
2019-05-11T05:17:07.178Z,98605.65
2019-05-11T05:19:28.501Z,98611.06
2019-05-11T05:21:50.604Z,98611.31
2019-05-11T05:24:12.206Z,98615.07
2019-05-11T05:26:33.966Z,98615.88
2019-05-11T05:28:55.144Z,98609.91
2019-05-11T05:31:17.306Z,98611.27
2019-05-11T05:33:38.669Z,98614.48
2019-05-11T05:36:00.614Z,98613.67
2019-05-11T05:38:22.292Z,98612.03
2019-05-11T05:40:43.772Z,98617.95
2019-05-11T05:43:05.535Z,98622.01
2019-05-11T05:45:27.799Z,98626.06
2019-05-11T05:47:49.209Z,98619.08
2019-05-11T05:50:10.888Z,98619.67
2019-05-11T05:52:32.552Z,98622.42
2019-05-11T05:54:54.844Z,98625.46
2019-05-11T05:57:16.633Z,98622.29
2019-05-11T05:59:38.480Z,98621.27
2019-05-11T06:02:00.118Z,98629.69
2019-05-11T06:04:22.045Z,98622.67
2019-05-11T06:06:44.846Z,98629.47
2019-05-11T06:09:06.250Z,98633.31
2019-05-11T06:11:27.602Z,98631.16
2019-05-11T06:13:49.488Z,98636.57
2019-05-11T06:16:11.441Z,98639.28
2019-05-11T06:18:33.531Z,98635.00
2019-05-11T06:20:55.423Z,98632.00
2019-05-11T06:23:17.189Z,98634.70
2019-05-11T06:25:39.188Z,98633.35
2019-05-11T06:28:00.706Z,98632.52
2019-05-11T06:30:22.070Z,98633.35
2019-05-11T06:32:43.581Z,98639.05
2019-05-11T06:35:05.635Z,98628.23
2019-05-11T06:37:27.287Z,98633.94
2019-05-11T06:39:48.951Z,98630.39
2019-05-11T06:42:10.552Z,98624.18
2019-05-11T06:44:32.356Z,98630.94
2019-05-11T06:46:53.936Z,98632.80
2019-05-11T06:49:15.344Z,98640.12
2019-05-11T06:51:40.349Z,98643.33
2019-05-11T06:54:00.837Z,98650.64
2019-05-11T06:56:22.772Z,98644.94
2019-05-11T06:58:45.615Z,98642.78
2019-05-11T07:01:07.683Z,98643.83
2019-05-11T07:03:29.403Z,98647.59
2019-05-11T07:05:51.036Z,98655.46
2019-05-11T07:08:13.386Z,98664.63
2019-05-11T07:10:35.516Z,98658.41
2019-05-11T07:12:57.966Z,98664.12
2019-05-11T07:15:20.292Z,98665.98
2019-05-11T07:17:41.582Z,98664.63
2019-05-11T07:20:07.722Z,98667.34
2019-05-11T07:22:29.863Z,98676.22
2019-05-11T07:24:51.636Z,98669.70
2019-05-11T07:27:13.540Z,98669.86
2019-05-11T07:29:35.462Z,98668.76
2019-05-11T07:32:03.139Z,98667.97
2019-05-11T07:34:21.140Z,98666.91
2019-05-11T07:36:43.083Z,98666.40
2019-05-11T07:41:32.189Z,98672.45
2019-05-11T07:43:54.126Z,98670.89
2019-05-11T07:46:28.949Z,98679.89
2019-05-11T07:48:51.143Z,98679.17
2019-05-11T07:51:12.480Z,98679.22
2019-05-11T07:53:33.971Z,98680.91
2019-05-11T07:55:57.753Z,98685.84
2019-05-11T08:00:18.594Z,98681.66
2019-05-11T08:02:40.638Z,98687.83
2019-05-11T08:05:02.369Z,98686.48
2019-05-11T08:07:25.140Z,98692.19
2019-05-11T08:09:48.267Z,98691.38
2019-05-11T08:12:10.720Z,98696.53
2019-05-11T08:14:32.558Z,98701.95
2019-05-11T08:16:54.545Z,98710.06
2019-05-11T08:19:18.527Z,98707.91
2019-05-11T08:21:39.445Z,98717.63
2019-05-11T08:24:00.928Z,98721.42
2019-05-11T08:26:22.819Z,98726.30
2019-05-11T08:28:44.507Z,98724.94
2019-05-11T08:31:08.040Z,98727.34
2019-05-11T08:33:30.008Z,98734.41
2019-05-11T08:35:51.939Z,98734.11
2019-05-11T08:38:13.776Z,98736.01
2019-05-11T08:40:37.913Z,98736.01
2019-05-11T08:42:58.842Z,98742.99
2019-05-11T08:45:24.780Z,98742.99
2019-05-11T08:47:44.435Z,98752.16
2019-05-11T08:50:08.054Z,98761.88
2019-05-11T08:52:30.282Z,98757.83
2019-05-11T08:54:52.332Z,98761.08
2019-05-11T08:57:14.030Z,98765.89
2019-05-11T08:59:37.936Z,98774.52
2019-05-11T09:01:59.046Z,98768.30
2019-05-11T09:04:20.671Z,98775.57
2019-05-11T09:06:42.108Z,98780.17
2019-05-11T09:09:04.142Z,98783.69
2019-05-11T09:11:28.200Z,98778.82
2019-05-11T09:13:50.188Z,98780.53
2019-05-11T09:16:11.767Z,98785.70
2019-05-11T09:18:33.566Z,98795.46
2019-05-11T09:20:57.731Z,98791.70
2019-05-11T09:23:33.680Z,98796.05
2019-05-11T09:25:42.255Z,98802.27
2019-05-11T09:28:04.293Z,98808.52
2019-05-11T09:30:28.637Z,98804.98
2019-05-11T09:32:49.493Z,98814.73
2019-05-11T09:35:11.488Z,98815.28
2019-05-11T09:37:33.632Z,98821.50
2019-05-11T09:39:58.180Z,98821.50
2019-05-11T09:42:19.222Z,98820.70
2019-05-11T09:44:41.013Z,98829.62
2019-05-11T09:47:02.982Z,98835.03
2019-05-11T09:49:24.388Z,98837.22
2019-05-11T09:51:48.253Z,98839.68
2019-05-11T09:54:09.579Z,98842.98
2019-05-11T09:56:31.649Z,98851.98
2019-05-11T09:58:53.031Z,98850.14
2019-05-11T10:01:14.761Z,98857.20
2019-05-11T10:03:38.670Z,98857.45
2019-05-11T10:06:00.515Z,98864.51
2019-05-11T10:08:21.997Z,98865.27
2019-05-11T10:10:43.693Z,98868.86
2019-05-11T10:13:05.382Z,98873.78
2019-05-11T10:15:28.750Z,98869.77
2019-05-11T10:17:50.728Z,98875.43
2019-05-11T10:20:11.859Z,98871.56
2019-05-11T10:22:34.027Z,98880.03
2019-05-11T10:24:58.060Z,98879.78
2019-05-11T10:27:19.210Z,98876.32
2019-05-11T10:29:40.932Z,98884.78
2019-05-11T10:32:02.698Z,98882.67
2019-05-11T10:34:24.482Z,98889.73
2019-05-11T10:36:48.615Z,98896.50
2019-05-11T10:39:10.150Z,98902.42
2019-05-11T10:41:32.116Z,98902.13
2019-05-11T10:43:53.856Z,98907.78
2019-05-11T10:46:22.967Z,98908.30
2019-05-11T10:48:39.843Z,98905.08
2019-05-11T10:51:01.737Z,98916.36
2019-05-11T10:53:23.049Z,98919.83
2019-05-11T10:55:44.807Z,98929.84
2019-05-11T10:58:08.635Z,98933.84
2019-05-11T11:00:31.106Z,98933.84
2019-05-11T11:02:53.767Z,98945.66
2019-05-11T11:05:15.078Z,98936.30
2019-05-11T11:07:38.422Z,98937.36
2019-05-11T11:10:01.245Z,98936.60
2019-05-11T11:12:27.764Z,98941.71
2019-05-11T11:14:48.793Z,98950.63
2019-05-11T11:17:11.105Z,98946.98
2019-05-11T11:19:33.025Z,98953.81
2019-05-11T11:21:54.634Z,98963.26
2019-05-11T11:24:17.919Z,98969.89
2019-05-11T11:26:39.601Z,98970.14
2019-05-11T11:29:01.627Z,98969.12
2019-05-11T11:31:23.668Z,98968.98
2019-05-11T11:33:45.229Z,98969.63
2019-05-11T11:36:08.510Z,98963.98
2019-05-11T11:38:30.215Z,98966.69
2019-05-11T11:41:04.635Z,98971.89
2019-05-11T11:43:28.714Z,98975.73
2019-05-11T11:45:49.923Z,98969.28
2019-05-11T11:48:11.450Z,98977.38
2019-05-11T11:50:33.026Z,98978.11
2019-05-11T11:52:57.687Z,98978.81
2019-05-11T11:55:18.686Z,98979.75
2019-05-11T11:57:48.439Z,98984.47
2019-05-11T12:00:09.398Z,98988.44
2019-05-11T12:02:30.901Z,98987.71
2019-05-11T12:04:53.816Z,98993.24
2019-05-11T12:07:17.960Z,98991.14
2019-05-11T12:09:38.792Z,98991.81
2019-05-11T12:12:00.946Z,99009.98
2019-05-11T12:14:21.897Z,99011.33
2019-05-11T12:16:44.196Z,99014.74
2019-05-11T12:19:05.724Z,99018.27
2019-05-11T12:21:27.804Z,99025.39
2019-05-11T12:23:49.102Z,99025.80
2019-05-11T12:26:12.001Z,99022.23
2019-05-11T12:28:33.286Z,99030.25
2019-05-11T12:30:58.572Z,99022.00
2019-05-11T12:33:20.761Z,99036.97
2019-05-11T12:35:42.505Z,99030.54
2019-05-11T12:38:04.239Z,99046.14
2019-05-11T12:40:28.159Z,99049.11
2019-05-11T12:42:49.252Z,99050.98
2019-05-11T12:45:11.245Z,99061.41
2019-05-11T12:47:32.926Z,99058.64
2019-05-11T12:49:54.661Z,99055.70
2019-05-11T12:52:18.275Z,99061.48
2019-05-11T12:54:39.536Z,99060.73
2019-05-11T12:57:01.526Z,99063.20
2019-05-11T12:59:22.678Z,99060.67
2019-05-11T13:01:44.791Z,99070.67
2019-05-11T13:04:08.832Z,99083.64
2019-05-11T13:06:30.199Z,99086.03
2019-05-11T13:08:51.711Z,99086.87
2019-05-11T13:11:13.713Z,99093.63
2019-05-11T13:13:35.041Z,99107.65
2019-05-11T13:15:58.563Z,99113.89
2019-05-11T13:18:20.723Z,99115.25
2019-05-11T13:20:42.005Z,99117.10
2019-05-11T13:23:04.003Z,99115.25
2019-05-11T13:25:28.112Z,99126.87
2019-05-11T13:27:49.435Z,99133.08
2019-05-11T13:30:11.347Z,99133.62
2019-05-11T13:32:33.629Z,99134.23
2019-05-11T13:34:55.455Z,99142.95
2019-05-11T13:37:18.754Z,99152.09
2019-05-11T13:39:41.275Z,99154.70
2019-05-11T13:42:03.223Z,99163.34
2019-05-11T13:44:24.689Z,99167.93
2019-05-11T13:46:49.063Z,99166.58
2019-05-11T13:49:10.940Z,99183.91
2019-05-11T13:51:33.865Z,99185.26
2019-05-11T13:53:55.439Z,99179.31
2019-05-11T13:56:18.941Z,99184.52
2019-05-11T13:58:39.888Z,99181.96
2019-05-11T14:01:01.703Z,99189.02
2019-05-11T14:03:23.715Z,99196.31
2019-05-11T14:05:47.902Z,99206.59
2019-05-11T14:08:08.970Z,99215.81
2019-05-11T14:10:30.531Z,99206.16
2019-05-11T14:12:52.098Z,99220.78
2019-05-11T14:15:14.828Z,99222.20
2019-05-11T14:17:38.032Z,99229.57
2019-05-11T14:19:59.870Z,99234.37
2019-05-11T14:22:21.800Z,99234.98
2019-05-11T14:24:43.972Z,99241.97
2019-05-11T14:27:05.490Z,99243.83
2019-05-11T14:29:28.547Z,99248.83
2019-05-11T14:31:50.737Z,99246.66
2019-05-11T14:34:12.560Z,99258.05
2019-05-11T14:36:34.669Z,99254.18
2019-05-11T14:38:57.685Z,99254.26
2019-05-11T14:41:18.762Z,99251.86
2019-05-11T14:43:40.131Z,99267.34
2019-05-11T14:46:02.070Z,99270.66
2019-05-11T14:48:27.076Z,99275.02
2019-05-11T14:50:48.950Z,99288.30
2019-05-11T14:53:10.044Z,99281.23
2019-05-11T14:55:32.976Z,99292.94
2019-05-11T14:57:54.748Z,99292.64
2019-05-11T15:00:18.542Z,99305.27
2019-05-11T15:02:39.851Z,99303.69
2019-05-11T15:05:01.526Z,99311.09
2019-05-11T15:07:22.657Z,99309.16
2019-05-11T15:09:44.956Z,99325.90
2019-05-11T15:12:08.611Z,99327.36
2019-05-11T15:14:29.403Z,99314.28
2019-05-11T15:16:50.830Z,99333.41
2019-05-11T15:19:12.889Z,99343.45
2019-05-11T15:21:33.970Z,99333.14
2019-05-11T15:23:57.967Z,99336.61
2019-05-11T15:26:19.524Z,99352.38
2019-05-11T15:28:41.395Z,99351.33
2019-05-11T15:31:03.138Z,99359.18
2019-05-11T15:33:24.338Z,99366.22
2019-05-11T15:35:47.832Z,99367.52
2019-05-11T15:38:10.336Z,99373.93
2019-05-11T15:40:32.452Z,99368.42
2019-05-11T15:42:54.861Z,99378.05
2019-05-11T15:45:18.595Z,99376.89
2019-05-11T15:47:39.711Z,99375.24
2019-05-11T15:50:00.815Z,99373.66
2019-05-11T15:52:22.882Z,99383.52
2019-05-11T15:54:44.914Z,99389.84
2019-05-11T15:57:08.395Z,99399.69
2019-05-11T15:59:30.826Z,99402.70
2019-05-11T16:01:54.566Z,99403.82
2019-05-11T16:04:17.964Z,99409.76
2019-05-11T16:06:39.057Z,99422.00
2019-05-11T16:09:01.377Z,99418.88
2019-05-11T16:11:23.337Z,99425.17
2019-05-11T16:13:45.531Z,99428.50
2019-05-11T16:16:07.309Z,99429.12
2019-05-11T16:18:28.956Z,99438.57
2019-05-11T16:20:50.538Z,99438.88
2019-05-11T16:23:13.040Z,99444.06
2019-05-11T16:25:34.838Z,99447.38
2019-05-11T16:27:56.375Z,99449.55
2019-05-11T16:30:21.388Z,99448.09
2019-05-11T16:32:41.030Z,99461.67
2019-05-11T16:35:03.584Z,99458.47
2019-05-11T16:37:24.944Z,99468.97
2019-05-11T16:39:49.475Z,99477.89
2019-05-11T16:42:10.242Z,99477.89
2019-05-11T16:44:31.926Z,99479.78
2019-05-11T16:46:54.091Z,99484.65
2019-05-11T16:49:26.227Z,99493.60
2019-05-11T16:51:39.510Z,99490.89
2019-05-11T16:54:01.387Z,99495.91
2019-05-11T16:56:23.137Z,99498.08
2019-05-11T16:58:44.898Z,99502.44
2019-05-11T17:01:08.412Z,99499.81
2019-05-11T17:03:29.790Z,99502.33
2019-05-11T17:05:51.852Z,99509.98
2019-05-11T17:08:13.727Z,99510.60
2019-05-11T17:10:35.313Z,99513.62
2019-05-11T17:12:58.092Z,99513.20
2019-05-11T17:15:33.373Z,99522.66
2019-05-11T17:17:55.245Z,99525.78
2019-05-11T17:20:18.690Z,99536.28
2019-05-11T17:22:39.662Z,99540.55
2019-05-11T17:25:01.394Z,99538.36
2019-05-11T17:27:23.060Z,99546.16
2019-05-11T17:29:48.796Z,99554.27
2019-05-11T17:32:09.140Z,99556.66
2019-05-11T17:34:31.160Z,99567.46
2019-05-11T17:36:52.085Z,99577.69
2019-05-11T17:39:14.713Z,99586.09
2019-05-11T17:41:38.761Z,99587.54
2019-05-11T17:44:01.197Z,99588.66
2019-05-11T17:46:22.287Z,99597.39
2019-05-11T17:48:44.446Z,99591.68
2019-05-11T17:51:20.576Z,99601.67
2019-05-11T17:53:30.996Z,99605.73
2019-05-11T17:55:53.429Z,99614.03
2019-05-11T17:58:15.228Z,99611.23
2019-05-11T18:00:39.236Z,99614.98
2019-05-11T18:03:00.181Z,99620.61
2019-05-11T18:05:21.888Z,99615.20
2019-05-11T18:07:44.703Z,99618.63
2019-05-11T18:10:08.142Z,99619.98
2019-05-11T18:12:30.670Z,99629.66
2019-05-11T18:14:51.858Z,99623.62
2019-05-11T18:17:14.115Z,99632.86
2019-05-11T18:19:35.525Z,99633.09
2019-05-11T18:21:57.784Z,99635.48
2019-05-11T18:24:19.583Z,99642.23
2019-05-11T18:26:40.886Z,99654.39
2019-05-11T18:29:02.904Z,99663.00
2019-05-11T18:31:25.026Z,99658.13
2019-05-11T18:33:48.749Z,99662.41
2019-05-11T18:36:13.643Z,99665.30
2019-05-11T18:38:35.570Z,99677.14
2019-05-11T18:40:58.049Z,99680.06
2019-05-11T18:43:20.305Z,99690.37
2019-05-11T18:45:44.268Z,99694.42
2019-05-11T18:48:07.873Z,99689.20
2019-05-11T18:50:30.866Z,99700.02
2019-05-11T18:52:52.372Z,99697.31
2019-05-11T18:55:13.888Z,99703.75
2019-05-11T18:57:38.201Z,99699.83
2019-05-11T18:59:58.821Z,99700.02
2019-05-11T19:02:21.375Z,99707.30
2019-05-11T19:04:43.541Z,99718.61
2019-05-11T19:07:14.181Z,99719.64
2019-05-11T19:09:28.429Z,99722.06
2019-05-11T19:11:50.452Z,99734.41
2019-05-11T19:14:11.915Z,99739.31
2019-05-11T19:16:33.860Z,99744.72
2019-05-11T19:18:55.844Z,99749.48
2019-05-11T19:21:18.022Z,99754.04
2019-05-11T19:23:39.663Z,99758.41
2019-05-11T19:26:01.818Z,99766.73
2019-05-11T19:28:23.711Z,99771.81
2019-05-11T19:30:45.851Z,99777.75
2019-05-11T19:33:10.753Z,99784.83
2019-05-11T19:35:30.187Z,99787.70
2019-05-11T19:37:52.274Z,99797.16
2019-05-11T19:40:14.184Z,99797.70
2019-05-11T19:42:37.907Z,99802.47
2019-05-11T19:44:59.708Z,99808.69
2019-05-11T19:47:24.762Z,99812.14
2019-05-11T19:49:47.922Z,99822.52
2019-05-11T19:52:09.559Z,99827.28
2019-05-11T19:54:30.828Z,99832.90
2019-05-11T19:56:52.819Z,99842.89
2019-05-11T19:59:14.773Z,99844.23
2019-05-11T20:01:37.818Z,99853.38
2019-05-11T20:03:59.403Z,99861.80
2019-05-11T20:06:21.718Z,99869.90
2019-05-11T20:08:43.282Z,99875.09
2019-05-11T20:11:05.024Z,99874.27
2019-05-11T20:13:28.386Z,99879.67
2019-05-11T20:15:50.209Z,99885.08
2019-05-11T20:18:12.402Z,99881.31
2019-05-11T20:20:34.839Z,99885.08
2019-05-11T20:22:58.450Z,99886.53
2019-05-11T20:25:20.015Z,99893.28
2019-05-11T20:27:41.594Z,99894.81
2019-05-11T20:30:03.317Z,99904.09
2019-05-11T20:32:24.387Z,99908.14
2019-05-11T20:34:48.308Z,99910.31
2019-05-11T20:37:11.521Z,99921.33
2019-05-11T20:39:33.189Z,99919.66
2019-05-11T20:41:55.535Z,99932.45
2019-05-11T20:44:19.311Z,99943.97
2019-05-11T20:46:40.883Z,99943.16
2019-05-11T20:49:01.981Z,99949.91
2019-05-11T20:51:34.186Z,99950.94
2019-05-11T20:53:48.932Z,99954.98
2019-05-11T20:56:10.290Z,99964.45
2019-05-11T20:58:31.891Z,99961.92
2019-05-11T21:00:53.853Z,99965.80
2019-05-11T21:03:15.744Z,99967.64
2019-05-11T21:05:38.267Z,99970.03
2019-05-11T21:08:00.419Z,99971.06
2019-05-11T21:10:22.193Z,99971.37
2019-05-11T21:12:44.121Z,99973.77
2019-05-11T21:15:06.001Z,99975.96
2019-05-11T21:17:28.073Z,99973.77
2019-05-11T21:19:49.569Z,99978.34
2019-05-11T21:22:11.533Z,99979.38
2019-05-11T21:24:33.408Z,99988.83
2019-05-11T21:26:55.328Z,99996.61
2019-05-11T21:29:18.686Z,99995.80
2019-05-11T21:31:40.721Z,100000.66
2019-05-11T21:34:02.623Z,100005.25
2019-05-11T21:36:24.605Z,100006.59
2019-05-11T21:38:48.197Z,100011.68
2019-05-11T21:41:09.294Z,100022.98
2019-05-11T21:43:30.945Z,100026.22
2019-05-11T21:45:53.512Z,100034.32
2019-05-11T21:48:15.357Z,100040.55
2019-05-11T21:50:37.011Z,100044.59
2019-05-11T21:52:59.158Z,100042.42
2019-05-11T21:55:21.617Z,100051.34
2019-05-11T21:57:43.554Z,100064.56
2019-05-11T22:00:04.949Z,100061.01
2019-05-11T22:02:28.581Z,100064.56
2019-05-11T22:04:49.483Z,100061.55
2019-05-11T22:07:11.355Z,100064.24
2019-05-11T22:09:32.879Z,100068.30
2019-05-11T22:11:54.475Z,100070.47
2019-05-11T22:14:16.427Z,100071.00
2019-05-11T22:16:38.910Z,100072.02
2019-05-11T22:19:01.489Z,100076.08
2019-05-11T22:21:23.174Z,100079.80
2019-05-11T22:23:47.460Z,100074.61
2019-05-11T22:26:07.899Z,100080.83
2019-05-11T22:28:29.949Z,100080.02
2019-05-11T22:30:52.267Z,100090.28
2019-05-11T22:33:13.197Z,100088.62
2019-05-11T22:35:35.008Z,100088.62
2019-05-11T22:37:57.778Z,100089.97
2019-05-11T22:40:18.932Z,100098.39
2019-05-11T22:42:41.015Z,100104.33
2019-05-11T22:45:02.872Z,100111.57
2019-05-11T22:47:24.622Z,100109.05
2019-05-11T22:49:49.654Z,100112.60
2019-05-11T22:52:09.956Z,100117.51
2019-05-11T22:54:31.261Z,100117.16
2019-05-11T22:56:52.419Z,100119.53
2019-05-11T22:59:14.026Z,100125.75
2019-05-11T23:01:37.812Z,100130.33
2019-05-11T23:03:59.846Z,100133.03
2019-05-11T23:06:22.129Z,100134.38
2019-05-11T23:08:44.185Z,100137.08
2019-05-11T23:11:10.305Z,100146.22
2019-05-11T23:13:30.322Z,100155.14
2019-05-11T23:15:52.169Z,100159.72
2019-05-11T23:18:14.120Z,100165.33
2019-05-11T23:20:35.750Z,100170.73
2019-05-11T23:23:01.314Z,100170.41
2019-05-11T23:25:21.038Z,100179.33
2019-05-11T23:27:43.369Z,100177.48
2019-05-11T23:30:04.873Z,100172.25
2019-05-11T23:32:26.739Z,100175.80
2019-05-11T23:34:49.047Z,100189.31
2019-05-11T23:37:10.873Z,100196.56
2019-05-11T23:39:32.465Z,100198.44
2019-05-11T23:41:53.990Z,100203.84
2019-05-11T23:44:17.964Z,100208.06
2019-05-11T23:46:39.202Z,100211.62
2019-05-11T23:49:01.442Z,100215.67
2019-05-11T23:51:23.009Z,100208.59
2019-05-11T23:53:47.516Z,100219.40
2019-05-11T23:56:08.358Z,100226.14
2019-05-11T23:58:30.461Z,100228.31
